createdAt,value
2019-02-19T00:01:17.008Z,1.90
2019-02-19T00:03:49.119Z,1.90
2019-02-19T00:06:19.621Z,1.90
2019-02-19T00:08:51.483Z,2.00
2019-02-19T00:11:21.943Z,1.90
2019-02-19T00:13:52.724Z,1.90
2019-02-19T00:16:23.178Z,1.70
2019-02-19T00:18:53.674Z,1.70
2019-02-19T00:21:24.119Z,1.70
2019-02-19T00:26:24.391Z,1.70
2019-02-19T00:31:24.553Z,1.60
2019-02-19T00:36:24.771Z,1.50
2019-02-19T00:38:56.228Z,1.50
2019-02-19T00:41:26.765Z,1.50
2019-02-19T00:43:57.276Z,1.60
2019-02-19T00:46:27.757Z,1.70
2019-02-19T00:48:58.265Z,1.70
2019-02-19T00:51:28.747Z,1.70
2019-02-19T00:53:59.318Z,1.80
2019-02-19T00:56:31.660Z,1.80
2019-02-19T00:59:02.139Z,1.80
2019-02-19T01:01:32.632Z,1.80
2019-02-19T01:04:03.125Z,1.80
2019-02-19T01:06:33.641Z,1.80
2019-02-19T01:09:05.485Z,1.90
2019-02-19T01:11:35.980Z,1.90
2019-02-19T01:14:07.274Z,1.90
2019-02-19T01:16:37.727Z,1.80
2019-02-19T01:19:08.104Z,1.80
2019-02-19T01:21:38.464Z,1.80
2019-02-19T01:24:08.872Z,1.80
2019-02-19T01:26:39.272Z,1.70
2019-02-19T01:29:09.692Z,1.80
2019-02-19T01:31:41.303Z,1.80
2019-02-19T01:34:11.675Z,1.80
2019-02-19T01:36:42.079Z,1.70
2019-02-19T01:39:12.519Z,1.70
2019-02-19T01:41:42.919Z,1.70
2019-02-19T01:44:13.299Z,1.60
2019-02-19T01:46:43.694Z,1.60
2019-02-19T01:49:15.008Z,1.60
2019-02-19T01:51:45.388Z,1.50
2019-02-19T01:54:15.784Z,1.50
2019-02-19T01:56:46.156Z,1.40
2019-02-19T01:59:16.557Z,1.40
2019-02-19T02:01:46.984Z,1.40
2019-02-19T02:04:17.348Z,1.50
2019-02-19T02:06:47.752Z,1.50
2019-02-19T02:09:18.155Z,1.50
2019-02-19T02:11:48.569Z,1.50
2019-02-19T02:14:18.998Z,1.60
2019-02-19T02:16:49.407Z,1.60
2019-02-19T02:19:19.792Z,1.60
2019-02-19T02:21:50.191Z,1.50
2019-02-19T02:24:20.661Z,1.60
2019-02-19T02:26:51.478Z,1.50
2019-02-19T02:29:21.991Z,1.50
2019-02-19T02:31:52.416Z,1.40
2019-02-19T02:34:22.799Z,1.40
2019-02-19T02:36:54.295Z,1.40
2019-02-19T02:39:24.651Z,1.30
2019-02-19T02:41:55.007Z,1.30
2019-02-19T02:44:25.356Z,1.30
2019-02-19T02:46:55.784Z,1.20
2019-02-19T02:49:26.224Z,1.20
2019-02-19T02:54:26.381Z,1.10
2019-02-19T02:59:27.436Z,1.00
2019-02-19T03:01:57.876Z,0.90
2019-02-19T03:04:28.310Z,1.00
2019-02-19T03:07:10.730Z,0.90
2019-02-19T03:09:41.177Z,0.90
2019-02-19T03:12:11.573Z,0.90
2019-02-19T03:14:42.040Z,0.90
2019-02-19T03:17:12.459Z,0.90
2019-02-19T03:19:43.192Z,0.80
2019-02-19T03:22:13.547Z,0.90
2019-02-19T03:24:44.144Z,0.90
2019-02-19T03:27:14.501Z,0.80
2019-02-19T03:29:44.966Z,0.70
2019-02-19T03:32:15.393Z,0.70
2019-02-19T03:34:45.840Z,0.80
2019-02-19T03:37:16.296Z,0.70
2019-02-19T03:39:46.679Z,0.60
2019-02-19T03:42:17.461Z,0.50
2019-02-19T03:44:47.923Z,0.50
2019-02-19T03:47:18.600Z,0.50
2019-02-19T03:49:49.040Z,0.40
2019-02-19T03:52:19.439Z,0.40
2019-02-19T03:54:49.865Z,0.30
2019-02-19T03:57:20.319Z,0.30
2019-02-19T03:59:50.680Z,0.30
2019-02-19T04:02:21.064Z,0.30
2019-02-19T04:04:51.493Z,0.20
2019-02-19T04:07:21.929Z,0.20
2019-02-19T04:09:52.391Z,0.20
2019-02-19T04:12:22.760Z,0.20
2019-02-19T04:14:53.203Z,0.10
2019-02-19T04:17:23.606Z,0.10
2019-02-19T04:19:54.069Z,0.10
2019-02-19T04:22:24.533Z,0.10
2019-02-19T04:24:54.952Z,0.10
2019-02-19T04:27:25.308Z,0.10
2019-02-19T04:29:55.780Z,0.00
2019-02-19T04:32:26.236Z,0.00
2019-02-19T04:34:56.631Z,0.00
2019-02-19T04:37:26.982Z,-0.10
2019-02-19T04:39:58.444Z,-0.10
2019-02-19T04:42:28.875Z,-0.10
2019-02-19T04:47:28.972Z,-0.10
2019-02-19T04:49:59.333Z,-0.10
2019-02-19T04:52:31.552Z,-0.10
2019-02-19T04:55:01.946Z,-0.20
2019-02-19T04:57:33.724Z,-0.20
2019-02-19T05:00:04.204Z,-0.20
2019-02-19T05:02:34.697Z,-0.20
2019-02-19T05:05:05.443Z,-0.20
2019-02-19T05:07:35.831Z,-0.20
2019-02-19T05:10:06.652Z,-0.20
2019-02-19T05:15:07.140Z,-0.20
2019-02-19T05:17:37.532Z,-0.10
2019-02-19T05:20:08.047Z,-0.10
2019-02-19T05:22:38.526Z,-0.10
2019-02-19T05:25:09.187Z,0.00
2019-02-19T05:27:39.614Z,0.00
2019-02-19T05:30:11.717Z,0.00
2019-02-19T05:32:42.084Z,0.00
2019-02-19T05:35:12.436Z,0.00
2019-02-19T05:37:42.912Z,0.10
2019-02-19T05:40:14.508Z,0.00
2019-02-19T05:42:44.992Z,0.10
2019-02-19T05:45:15.360Z,0.20
2019-02-19T05:47:45.835Z,0.30
2019-02-19T05:50:16.195Z,0.30
2019-02-19T05:52:46.547Z,0.50
2019-02-19T05:55:16.949Z,0.50
2019-02-19T05:57:47.310Z,0.60
2019-02-19T06:00:17.765Z,0.60
2019-02-19T06:02:48.196Z,0.60
2019-02-19T06:05:18.603Z,0.60
2019-02-19T06:07:48.951Z,0.60
2019-02-19T06:10:19.423Z,0.70
2019-02-19T06:12:49.895Z,0.70
2019-02-19T06:15:20.268Z,0.70
2019-02-19T06:17:50.642Z,1.00
2019-02-19T06:20:21.171Z,1.30
2019-02-19T06:22:51.566Z,1.70
2019-02-19T06:25:22.037Z,2.00
2019-02-19T06:27:54.806Z,2.50
2019-02-19T06:30:25.252Z,2.80
2019-02-19T06:32:55.735Z,3.30
2019-02-19T06:35:26.104Z,3.60
2019-02-19T06:37:57.759Z,3.90
2019-02-19T06:40:29.271Z,4.00
2019-02-19T06:45:29.383Z,4.90
2019-02-19T06:50:29.487Z,5.90
2019-02-19T06:55:29.526Z,6.90
2019-02-19T06:57:59.991Z,7.00
2019-02-19T07:00:30.376Z,7.60
2019-02-19T07:03:06.165Z,8.60
2019-02-19T07:05:36.612Z,9.20
2019-02-19T07:08:06.988Z,9.40
2019-02-19T07:10:37.444Z,9.70
2019-02-19T07:13:07.816Z,10.30
2019-02-19T07:15:38.332Z,10.60
2019-02-19T07:18:08.700Z,10.40
2019-02-19T07:20:39.103Z,10.10
2019-02-19T07:23:09.501Z,10.40
2019-02-19T07:25:39.863Z,11.20
2019-02-19T07:28:10.291Z,11.10
2019-02-19T07:30:40.648Z,11.10
2019-02-19T07:33:11.065Z,11.30
2019-02-19T07:35:41.507Z,11.00
2019-02-19T07:38:11.916Z,10.90
2019-02-19T07:40:42.432Z,10.80
2019-02-19T07:43:12.795Z,10.80
2019-02-19T07:45:43.233Z,10.80
2019-02-19T07:48:13.636Z,11.00
2019-02-19T07:50:44.060Z,11.10
2019-02-19T07:53:14.445Z,11.40
2019-02-19T07:55:44.899Z,11.50
2019-02-19T07:58:15.256Z,12.10
2019-02-19T08:00:45.685Z,12.30
2019-02-19T08:03:18.439Z,12.60
2019-02-19T08:05:50.080Z,12.70
2019-02-19T08:08:23.208Z,13.10
2019-02-19T08:10:54.327Z,12.90
2019-02-19T08:13:26.487Z,12.90
2019-02-19T08:15:57.044Z,12.90
2019-02-19T08:18:29.741Z,13.20
2019-02-19T08:21:00.157Z,13.00
2019-02-19T08:23:30.808Z,13.30
2019-02-19T08:26:01.245Z,13.60
2019-02-19T08:28:31.721Z,13.60
2019-02-19T08:31:02.620Z,14.00
2019-02-19T08:33:34.080Z,13.70
2019-02-19T08:36:05.505Z,14.60
2019-02-19T08:38:36.021Z,14.60
2019-02-19T08:41:06.471Z,14.70
2019-02-19T08:43:37.924Z,15.00
2019-02-19T08:46:08.682Z,15.50
2019-02-19T08:48:39.233Z,15.60
2019-02-19T08:51:09.704Z,15.80
2019-02-19T08:53:42.361Z,15.60
2019-02-19T08:56:12.830Z,15.80
2019-02-19T08:58:43.486Z,15.50
2019-02-19T09:01:14.312Z,15.60
2019-02-19T09:03:44.767Z,15.60
2019-02-19T09:06:15.136Z,15.20
2019-02-19T09:08:45.613Z,14.90
2019-02-19T09:11:16.260Z,15.40
2019-02-19T09:13:46.619Z,15.40
2019-02-19T09:16:17.097Z,16.30
2019-02-19T09:18:47.556Z,16.20
2019-02-19T09:21:18.015Z,16.50
2019-02-19T09:23:48.409Z,16.00
2019-02-19T09:26:18.820Z,16.30
2019-02-19T09:28:49.208Z,16.90
2019-02-19T09:31:19.575Z,17.20
2019-02-19T09:33:50.036Z,18.00
2019-02-19T09:36:20.408Z,17.70
2019-02-19T09:38:50.759Z,17.40
2019-02-19T09:41:21.115Z,17.30
2019-02-19T09:43:51.525Z,17.90
2019-02-19T09:46:22.047Z,17.70
2019-02-19T09:48:52.399Z,17.80
2019-02-19T09:51:22.775Z,17.60
2019-02-19T09:53:53.142Z,17.30
2019-02-19T09:56:23.539Z,17.70
2019-02-19T09:58:53.921Z,17.30
2019-02-19T10:01:24.779Z,17.00
2019-02-19T10:03:55.163Z,18.00
2019-02-19T10:06:25.657Z,17.90
2019-02-19T10:08:56.083Z,19.00
2019-02-19T10:11:26.528Z,19.50
2019-02-19T10:13:57.019Z,18.00
2019-02-19T10:16:27.800Z,17.60
2019-02-19T10:18:58.264Z,18.10
2019-02-19T10:21:28.668Z,17.30
2019-02-19T10:23:59.412Z,17.50
2019-02-19T10:26:29.836Z,18.40
2019-02-19T10:29:00.240Z,18.30
2019-02-19T10:31:30.607Z,17.00
2019-02-19T10:34:01.063Z,17.20
2019-02-19T10:36:31.408Z,18.40
2019-02-19T10:39:01.810Z,19.20
2019-02-19T10:41:32.316Z,19.70
2019-02-19T10:44:02.688Z,19.40
2019-02-19T10:46:33.084Z,18.80
2019-02-19T10:49:03.527Z,19.60
2019-02-19T10:51:33.928Z,18.90
2019-02-19T10:54:05.419Z,19.20
2019-02-19T10:56:35.803Z,18.30
2019-02-19T10:59:06.284Z,18.00
2019-02-19T11:01:37.619Z,17.90
2019-02-19T11:04:08.073Z,17.40
2019-02-19T11:06:39.065Z,16.80
2019-02-19T11:09:09.582Z,16.20
2019-02-19T11:11:40.019Z,16.10
2019-02-19T11:14:10.421Z,15.70
2019-02-19T11:16:40.821Z,16.00
2019-02-19T11:19:11.295Z,16.90
2019-02-19T11:21:41.676Z,17.00
2019-02-19T11:24:12.055Z,17.90
2019-02-19T11:26:42.448Z,18.50
2019-02-19T11:29:12.938Z,18.40
2019-02-19T11:31:43.368Z,18.10
2019-02-19T11:34:13.747Z,18.80
2019-02-19T11:36:44.148Z,18.60
2019-02-19T11:39:14.800Z,19.50
2019-02-19T11:41:45.212Z,20.30
2019-02-19T11:44:16.608Z,21.40
2019-02-19T11:46:46.991Z,20.20
2019-02-19T11:49:17.416Z,20.30
2019-02-19T11:51:47.787Z,20.00
2019-02-19T11:54:18.137Z,20.00
2019-02-19T11:56:48.484Z,20.20
2019-02-19T11:59:18.828Z,19.80
2019-02-19T12:01:51.046Z,19.90
2019-02-19T12:04:21.403Z,19.60
2019-02-19T12:06:51.828Z,19.80
2019-02-19T12:09:22.221Z,18.80
2019-02-19T12:11:52.616Z,16.70
2019-02-19T12:14:23.324Z,14.30
2019-02-19T12:16:53.800Z,13.80
2019-02-19T12:19:24.228Z,13.70
2019-02-19T12:21:54.695Z,13.50
2019-02-19T12:24:25.240Z,13.40
2019-02-19T12:26:55.692Z,13.50
2019-02-19T12:29:26.086Z,13.40
2019-02-19T12:31:56.496Z,13.40
2019-02-19T12:34:26.900Z,13.30
2019-02-19T12:36:57.292Z,13.20
2019-02-19T12:39:27.700Z,13.00
2019-02-19T12:41:58.168Z,13.00
2019-02-19T12:44:28.564Z,13.00
2019-02-19T12:46:59.446Z,13.00
2019-02-19T12:49:29.891Z,13.00
2019-02-19T12:52:00.385Z,13.00
2019-02-19T12:54:34.024Z,13.00
2019-02-19T12:59:34.202Z,13.20
2019-02-19T13:04:34.364Z,12.90
2019-02-19T13:09:35.414Z,12.70
2019-02-19T13:12:05.777Z,12.50
2019-02-19T13:14:36.273Z,12.50
2019-02-19T13:17:06.688Z,12.30
2019-02-19T13:19:37.063Z,12.40
2019-02-19T13:22:07.520Z,12.40
2019-02-19T13:24:37.968Z,12.30
2019-02-19T13:27:08.359Z,12.30
2019-02-19T13:29:38.812Z,12.20
2019-02-19T13:32:10.146Z,12.30
2019-02-19T13:34:40.552Z,12.20
2019-02-19T13:37:10.954Z,12.00
2019-02-19T13:39:41.424Z,11.90
2019-02-19T13:42:11.909Z,11.60
2019-02-19T13:44:42.328Z,11.60
2019-02-19T13:47:12.768Z,11.10
2019-02-19T13:49:43.259Z,10.90
2019-02-19T13:52:22.554Z,10.80
2019-02-19T13:54:58.823Z,10.70
2019-02-19T13:57:29.263Z,10.70
2019-02-19T13:59:59.737Z,10.60
2019-02-19T14:02:30.120Z,10.50
2019-02-19T14:05:00.512Z,10.40
2019-02-19T14:07:30.883Z,10.30
2019-02-19T14:10:01.278Z,10.30
2019-02-19T14:12:31.795Z,10.20
2019-02-19T14:15:15.067Z,10.20
2019-02-19T14:17:45.468Z,10.20
2019-02-19T14:20:52.989Z,10.10
2019-02-19T14:23:42.341Z,10.00
2019-02-19T14:26:31.617Z,10.00
2019-02-19T14:29:27.119Z,9.90
2019-02-19T14:32:28.524Z,9.90
2019-02-19T14:35:29.763Z,9.80
2019-02-19T14:38:17.647Z,9.80
2019-02-19T14:41:16.523Z,9.70
2019-02-19T14:43:58.132Z,9.70
2019-02-19T14:46:47.812Z,9.70
2019-02-19T14:49:37.491Z,9.60
2019-02-19T14:52:26.689Z,9.60
2019-02-19T14:55:21.994Z,9.50
2019-02-19T14:58:14.343Z,9.40
2019-02-19T15:01:12.591Z,9.40
2019-02-19T15:03:55.032Z,9.20
2019-02-19T15:06:56.499Z,9.10
2019-02-19T15:09:44.275Z,9.00
2019-02-19T15:12:45.834Z,9.00
2019-02-19T15:15:33.771Z,9.00
2019-02-19T15:18:17.827Z,9.00
2019-02-19T15:21:05.620Z,9.00
2019-02-19T15:23:44.288Z,9.00
2019-02-19T15:26:36.395Z,8.90
2019-02-19T15:29:25.756Z,8.80
2019-02-19T15:32:15.507Z,8.80
2019-02-19T15:35:07.820Z,8.80
2019-02-19T15:38:04.147Z,8.70
2019-02-19T15:40:53.406Z,8.70
2019-02-19T15:43:32.409Z,8.70
2019-02-19T15:46:18.313Z,8.70
2019-02-19T15:49:05.899Z,8.70
2019-02-19T15:51:53.338Z,8.70
2019-02-19T15:54:39.767Z,8.60
2019-02-19T15:57:27.551Z,8.50
2019-02-19T16:00:24.619Z,8.50
2019-02-19T16:03:05.861Z,8.50
2019-02-19T16:05:58.371Z,8.40
2019-02-19T16:08:40.687Z,8.30
2019-02-19T16:11:17.355Z,8.30
2019-02-19T16:14:06.207Z,8.30
2019-02-19T16:16:51.592Z,8.30
2019-02-19T16:19:39.476Z,8.10
2019-02-19T16:22:28.771Z,8.10
2019-02-19T16:25:16.721Z,8.00
2019-02-19T16:28:06.111Z,8.00
2019-02-19T16:30:49.626Z,7.90
2019-02-19T16:33:31.876Z,7.80
2019-02-19T16:36:17.256Z,7.80
2019-02-19T16:39:00.544Z,7.90
2019-02-19T16:41:48.583Z,7.80
2019-02-19T16:44:49.744Z,7.80
2019-02-19T16:47:33.268Z,7.70
2019-02-19T16:50:28.312Z,7.70
2019-02-19T16:53:07.979Z,7.70
2019-02-19T16:56:00.336Z,7.70
2019-02-19T16:58:49.707Z,7.70
2019-02-19T17:01:38.967Z,7.60
2019-02-19T17:04:16.850Z,7.60
2019-02-19T17:07:29.913Z,7.60
2019-02-19T17:10:10.756Z,7.50
2019-02-19T17:13:06.020Z,7.50
2019-02-19T17:15:53.727Z,7.40
2019-02-19T17:18:57.964Z,7.40
2019-02-19T17:21:35.088Z,7.30
2019-02-19T17:24:22.799Z,7.20
2019-02-19T17:27:12.127Z,7.10
2019-02-19T17:29:51.002Z,7.10
2019-02-19T17:32:39.146Z,6.90
2019-02-19T17:35:31.400Z,6.80
2019-02-19T17:38:14.681Z,6.70
2019-02-19T17:40:47.620Z,6.60
2019-02-19T17:43:46.577Z,6.60
2019-02-19T17:46:36.633Z,6.60
2019-02-19T17:49:25.977Z,6.70
2019-02-19T17:52:24.431Z,6.80
2019-02-19T17:55:25.407Z,6.80
2019-02-19T17:58:26.567Z,6.90
2019-02-19T18:01:03.799Z,6.90
2019-02-19T18:04:04.720Z,6.90
2019-02-19T18:06:51.359Z,6.90
2019-02-19T18:09:38.828Z,6.90
2019-02-19T18:12:19.705Z,6.90
2019-02-19T18:15:20.624Z,6.90
2019-02-19T18:18:09.886Z,6.90
2019-02-19T18:20:47.259Z,7.00
2019-02-19T18:23:12.319Z,7.10
2019-02-19T18:25:42.680Z,7.10
2019-02-19T18:28:13.040Z,7.10
2019-02-19T18:30:44.380Z,7.10
2019-02-19T18:33:14.761Z,7.10
2019-02-19T18:35:45.105Z,7.10
2019-02-19T18:38:15.480Z,7.10
2019-02-19T18:40:45.837Z,7.20
2019-02-19T18:43:16.250Z,7.20
2019-02-19T18:45:46.681Z,7.20
2019-02-19T18:48:17.120Z,7.20
2019-02-19T18:50:49.030Z,7.20
2019-02-19T18:53:19.624Z,7.20
2019-02-19T18:55:51.193Z,7.20
2019-02-19T18:58:21.640Z,7.20
2019-02-19T19:00:52.022Z,7.20
2019-02-19T19:03:22.476Z,7.20
2019-02-19T19:05:52.853Z,7.20
2019-02-19T19:08:23.220Z,7.20
2019-02-19T19:10:53.644Z,7.30
2019-02-19T19:13:24.031Z,7.30
2019-02-19T19:15:54.444Z,7.30
2019-02-19T19:18:26.103Z,7.40
2019-02-19T19:23:26.132Z,7.40
2019-02-19T19:28:26.184Z,7.40
2019-02-19T19:33:26.230Z,7.30
2019-02-19T19:38:28.527Z,7.00
2019-02-19T19:40:59.848Z,6.80
2019-02-19T19:43:30.183Z,6.70
2019-02-19T19:46:00.543Z,6.60
2019-02-19T19:48:30.886Z,6.50
2019-02-19T19:51:01.325Z,6.50
2019-02-19T19:53:31.689Z,6.40
2019-02-19T19:56:02.059Z,6.40
2019-02-19T19:58:32.413Z,6.40
2019-02-19T20:01:02.791Z,6.50
2019-02-19T20:03:33.548Z,6.50
2019-02-19T20:06:03.991Z,6.50
2019-02-19T20:08:34.417Z,6.60
2019-02-19T20:11:05.742Z,6.60
2019-02-19T20:13:36.196Z,6.70
2019-02-19T20:16:06.544Z,6.60
2019-02-19T20:18:39.129Z,6.60
2019-02-19T20:21:09.072Z,6.70
2019-02-19T20:23:39.516Z,6.70
2019-02-19T20:26:10.934Z,6.50
2019-02-19T20:28:41.419Z,6.50
2019-02-19T20:31:12.861Z,6.50
2019-02-19T20:33:43.292Z,6.40
2019-02-19T20:36:13.713Z,6.20
2019-02-19T20:38:44.198Z,6.30
2019-02-19T20:43:44.328Z,6.20
2019-02-19T20:46:14.780Z,6.10
2019-02-19T20:48:45.124Z,6.00
2019-02-19T20:51:15.587Z,6.00
2019-02-19T20:53:46.083Z,6.00
2019-02-19T20:56:16.531Z,6.00
2019-02-19T20:58:46.975Z,5.90
2019-02-19T21:01:17.495Z,5.90
2019-02-19T21:03:47.915Z,5.90
2019-02-19T21:06:18.560Z,5.80
2019-02-19T21:08:48.983Z,5.80
2019-02-19T21:11:19.436Z,5.80
2019-02-19T21:13:49.856Z,5.80
2019-02-19T21:16:20.228Z,5.70
2019-02-19T21:18:50.644Z,5.70
2019-02-19T21:21:21.091Z,5.60
2019-02-19T21:23:51.598Z,5.50
2019-02-19T21:26:22.088Z,5.50
2019-02-19T21:28:52.575Z,5.40
2019-02-19T21:31:22.915Z,5.30
2019-02-19T21:33:53.268Z,5.20
2019-02-19T21:36:23.712Z,5.10
2019-02-19T21:38:54.128Z,5.10
2019-02-19T21:41:24.622Z,5.20
2019-02-19T21:43:55.035Z,5.20
2019-02-19T21:46:25.412Z,5.10
2019-02-19T21:48:55.947Z,5.10
2019-02-19T21:51:26.316Z,5.10
2019-02-19T21:53:56.655Z,5.10
2019-02-19T21:56:27.072Z,5.00
2019-02-19T21:58:57.486Z,5.10
2019-02-19T22:01:27.968Z,5.10
2019-02-19T22:03:58.388Z,5.20
2019-02-19T22:06:28.846Z,5.10
2019-02-19T22:08:59.296Z,5.10
2019-02-19T22:11:29.740Z,5.10
2019-02-19T22:16:29.683Z,5.20
2019-02-19T22:22:03.162Z,5.40
2019-02-19T22:24:37.303Z,5.40
2019-02-19T22:27:08.351Z,5.40
2019-02-19T22:29:39.196Z,5.30
2019-02-19T22:32:10.168Z,5.40
2019-02-19T22:34:40.520Z,5.50
2019-02-19T22:39:43.068Z,5.90
2019-02-19T22:42:13.416Z,6.10
2019-02-19T22:44:43.831Z,6.10
2019-02-19T22:47:14.215Z,6.20
2019-02-19T22:49:44.586Z,6.20
2019-02-19T22:52:14.925Z,6.10
2019-02-19T22:54:57.087Z,6.10
2019-02-19T22:57:27.441Z,6.00
2019-02-19T22:59:57.847Z,6.00
2019-02-19T23:02:29.836Z,6.10
2019-02-19T23:05:00.257Z,6.20
2019-02-19T23:07:30.611Z,6.10
2019-02-19T23:10:00.972Z,6.10
2019-02-19T23:12:32.700Z,6.10
2019-02-19T23:15:03.031Z,6.00
2019-02-19T23:17:33.671Z,6.00
2019-02-19T23:20:04.042Z,6.00
2019-02-19T23:22:34.456Z,5.90
2019-02-19T23:25:04.864Z,5.90
2019-02-19T23:27:35.336Z,5.90
2019-02-19T23:30:06.123Z,5.80
2019-02-19T23:32:37.056Z,5.70
2019-02-19T23:35:32.505Z,5.60
2019-02-19T23:38:02.862Z,5.50
2019-02-19T23:40:33.300Z,5.50
2019-02-19T23:43:03.647Z,5.40
2019-02-19T23:45:34.072Z,5.50
2019-02-19T23:48:04.407Z,5.50
2019-02-19T23:50:34.781Z,5.50
2019-02-19T23:53:05.111Z,5.40
2019-02-19T23:55:36.432Z,5.40
2019-02-19T23:58:07.748Z,5.50
